createdAt,value
2023-05-17T00:01:13.929Z,54.50
2023-05-17T00:03:59.746Z,54.60
2023-05-17T00:06:45.490Z,54.60
2023-05-17T00:09:30.992Z,54.20
2023-05-17T00:12:16.739Z,54.70
2023-05-17T00:15:02.635Z,54.80
2023-05-17T00:17:48.515Z,54.80
2023-05-17T00:20:33.964Z,55.50
2023-05-17T00:23:19.689Z,55.10
2023-05-17T00:26:05.046Z,55.00
2023-05-17T00:28:50.457Z,55.10
2023-05-17T00:31:35.961Z,55.50
2023-05-17T00:34:21.448Z,55.10
2023-05-17T00:37:06.852Z,54.70
2023-05-17T00:39:52.676Z,54.60
2023-05-17T00:42:39.045Z,54.20
2023-05-17T00:45:24.835Z,54.10
2023-05-17T00:48:10.784Z,54.20
2023-05-17T00:50:58.079Z,54.50
2023-05-17T00:53:43.836Z,54.40
2023-05-17T00:56:30.538Z,54.40
2023-05-17T00:59:16.549Z,54.40
2023-05-17T01:02:02.136Z,54.40
2023-05-17T01:04:49.516Z,54.60
2023-05-17T01:07:35.182Z,54.10
2023-05-17T01:10:20.872Z,55.20
2023-05-17T01:13:23.164Z,54.40
2023-05-17T01:16:38.629Z,53.60
2023-05-17T01:20:09.796Z,54.50
2023-05-17T01:23:48.888Z,53.20
2023-05-17T01:26:42.790Z,54.90
2023-05-17T01:29:30.191Z,54.80
2023-05-17T01:32:16.531Z,54.10
2023-05-17T01:35:05.446Z,54.30
2023-05-17T01:37:53.018Z,53.80
2023-05-17T01:41:04.874Z,54.40
2023-05-17T01:44:02.179Z,53.70
2023-05-17T01:46:47.723Z,53.60
2023-05-17T01:49:38.978Z,54.20
2023-05-17T01:52:38.079Z,53.40
2023-05-17T01:55:49.024Z,53.80
2023-05-17T01:58:45.955Z,53.70
2023-05-17T02:01:32.908Z,54.40
2023-05-17T02:04:21.816Z,54.50
2023-05-17T02:07:07.272Z,54.40
2023-05-17T02:09:52.892Z,54.70
2023-05-17T02:12:38.236Z,54.60
2023-05-17T02:15:24.085Z,54.90
2023-05-17T02:18:09.666Z,54.60
2023-05-17T02:20:55.692Z,54.40
2023-05-17T02:23:41.380Z,54.30
2023-05-17T02:26:26.851Z,54.50
2023-05-17T02:29:12.248Z,54.90
2023-05-17T02:31:57.942Z,55.00
2023-05-17T02:34:43.550Z,55.30
2023-05-17T02:37:29.194Z,55.20
2023-05-17T02:40:14.741Z,54.90
2023-05-17T02:43:03.195Z,55.40
2023-05-17T02:45:49.302Z,54.60
2023-05-17T02:48:34.595Z,55.20
2023-05-17T02:51:20.120Z,55.00
2023-05-17T02:54:05.587Z,54.90
2023-05-17T02:56:51.065Z,54.60
2023-05-17T02:59:37.030Z,54.60
2023-05-17T03:02:22.850Z,54.60
2023-05-17T03:05:08.718Z,54.50
2023-05-17T03:07:54.575Z,54.70
2023-05-17T03:10:40.280Z,54.80
2023-05-17T03:13:26.384Z,55.00
2023-05-17T03:16:12.639Z,54.80
2023-05-17T03:18:58.475Z,54.50
2023-05-17T03:21:44.481Z,54.40
2023-05-17T03:24:29.769Z,54.50
2023-05-17T03:27:15.266Z,54.20
2023-05-17T03:30:01.140Z,54.20
2023-05-17T03:32:46.526Z,54.20
2023-05-17T03:35:32.450Z,54.00
2023-05-17T03:38:17.940Z,54.20
2023-05-17T03:41:03.972Z,54.30
2023-05-17T03:43:49.374Z,54.00
2023-05-17T03:46:35.414Z,54.00
2023-05-17T03:49:21.002Z,54.10
2023-05-17T03:52:06.631Z,53.80
2023-05-17T03:54:52.404Z,53.80
2023-05-17T03:57:37.981Z,53.60
2023-05-17T04:00:23.359Z,53.80
2023-05-17T04:03:09.001Z,53.90
2023-05-17T04:06:01.421Z,53.80
2023-05-17T04:08:47.008Z,53.70
2023-05-17T04:11:32.316Z,53.80
2023-05-17T04:14:18.790Z,53.90
2023-05-17T04:17:04.314Z,53.50
2023-05-17T04:19:50.152Z,53.80
2023-05-17T04:22:35.430Z,53.40
2023-05-17T04:25:21.103Z,53.60
2023-05-17T04:28:06.434Z,53.60
2023-05-17T04:30:52.109Z,53.40
2023-05-17T04:33:37.851Z,53.20
2023-05-17T04:36:23.596Z,53.20
2023-05-17T04:39:09.245Z,53.10
2023-05-17T04:41:55.137Z,52.90
2023-05-17T04:44:40.464Z,53.10
2023-05-17T04:47:26.354Z,52.80
2023-05-17T04:50:12.450Z,52.90
2023-05-17T04:53:01.417Z,53.00
2023-05-17T04:55:47.104Z,52.60
2023-05-17T04:58:32.545Z,52.70
2023-05-17T05:01:24.050Z,52.60
2023-05-17T05:04:09.815Z,52.20
2023-05-17T05:06:55.623Z,52.60
2023-05-17T05:09:41.169Z,53.00
2023-05-17T05:12:26.670Z,52.30
2023-05-17T05:15:12.572Z,52.30
2023-05-17T05:18:01.017Z,52.40
2023-05-17T05:20:49.051Z,52.40
2023-05-17T05:23:34.662Z,52.00
2023-05-17T05:26:20.127Z,52.40
2023-05-17T05:29:05.646Z,52.30
2023-05-17T05:31:51.034Z,52.10
2023-05-17T05:34:36.500Z,52.00
2023-05-17T05:37:24.445Z,52.00
2023-05-17T05:40:11.256Z,51.70
2023-05-17T05:42:56.930Z,51.90
2023-05-17T05:45:42.727Z,51.80
2023-05-17T05:48:28.597Z,52.00
2023-05-17T05:51:14.197Z,51.90
2023-05-17T05:53:59.502Z,51.90
2023-05-17T05:56:44.919Z,51.60
2023-05-17T05:59:30.311Z,51.60
2023-05-17T06:02:15.902Z,51.90
2023-05-17T06:05:01.498Z,51.60
2023-05-17T06:07:46.893Z,51.60
2023-05-17T06:10:33.314Z,51.50
2023-05-17T06:13:19.152Z,51.40
2023-05-17T06:16:05.154Z,51.50
2023-05-17T06:18:51.884Z,51.50
2023-05-17T06:21:37.774Z,51.40
2023-05-17T06:24:23.266Z,51.40
2023-05-17T06:27:08.659Z,51.20
2023-05-17T06:29:54.004Z,51.30
2023-05-17T06:32:39.481Z,51.00
2023-05-17T06:35:25.379Z,51.00
2023-05-17T06:38:10.917Z,51.20
2023-05-17T06:40:57.047Z,51.20
2023-05-17T06:43:42.207Z,51.30
2023-05-17T06:46:27.830Z,51.10
2023-05-17T06:49:13.297Z,50.80
2023-05-17T06:51:58.828Z,50.80
2023-05-17T06:54:44.389Z,50.70
2023-05-17T06:57:29.877Z,50.70
2023-05-17T07:00:16.119Z,50.60
2023-05-17T07:03:02.013Z,50.60
2023-05-17T07:05:47.961Z,50.60
2023-05-17T07:08:33.635Z,50.50
2023-05-17T07:11:18.989Z,50.50
2023-05-17T07:14:04.648Z,50.40
2023-05-17T07:16:50.118Z,50.30
2023-05-17T07:19:35.667Z,50.30
2023-05-17T07:22:21.987Z,50.30
2023-05-17T07:25:08.880Z,50.30
2023-05-17T07:27:54.940Z,50.50
2023-05-17T07:30:41.786Z,50.20
2023-05-17T07:33:27.991Z,50.20
2023-05-17T07:36:13.729Z,50.20
2023-05-17T07:38:59.170Z,50.20
2023-05-17T07:41:44.632Z,50.30
2023-05-17T07:44:29.958Z,50.10
2023-05-17T07:47:16.068Z,50.20
2023-05-17T07:50:02.635Z,50.30
2023-05-17T07:52:48.201Z,50.10
2023-05-17T07:55:34.048Z,50.20
2023-05-17T07:58:19.683Z,50.30
2023-05-17T08:01:05.300Z,50.20
2023-05-17T08:03:50.829Z,50.00
2023-05-17T08:06:36.382Z,49.90
2023-05-17T08:09:21.760Z,50.10
2023-05-17T08:12:07.380Z,49.90
2023-05-17T08:14:52.795Z,50.10
2023-05-17T08:17:41.697Z,50.40
2023-05-17T08:20:30.238Z,50.50
2023-05-17T08:23:15.948Z,50.40
2023-05-17T08:26:01.307Z,50.50
2023-05-17T08:28:46.854Z,50.50
2023-05-17T08:31:33.022Z,50.60
2023-05-17T08:34:19.043Z,50.60
2023-05-17T08:37:05.190Z,50.80
2023-05-17T08:39:51.075Z,50.60
2023-05-17T08:42:37.245Z,50.60
2023-05-17T08:45:23.186Z,50.60
2023-05-17T08:48:08.871Z,50.50
2023-05-17T08:50:56.052Z,50.60
2023-05-17T08:53:41.885Z,51.20
2023-05-17T08:56:29.809Z,50.60
2023-05-17T08:59:15.347Z,50.70
2023-05-17T09:02:01.452Z,50.80
2023-05-17T09:04:48.144Z,50.70
2023-05-17T09:07:34.087Z,50.60
2023-05-17T09:10:20.403Z,50.50
2023-05-17T09:13:06.736Z,50.30
2023-05-17T09:15:52.707Z,51.00
2023-05-17T09:18:38.197Z,50.40
2023-05-17T09:21:26.563Z,50.30
2023-05-17T09:24:12.759Z,50.20
2023-05-17T09:27:03.704Z,49.90
2023-05-17T09:29:49.469Z,50.10
2023-05-17T09:32:35.137Z,50.00
2023-05-17T09:35:28.683Z,49.80
2023-05-17T09:38:14.842Z,49.70
2023-05-17T09:41:01.469Z,49.90
2023-05-17T09:43:47.198Z,49.70
2023-05-17T09:46:42.083Z,49.80
2023-05-17T09:49:27.822Z,50.00
2023-05-17T09:52:20.140Z,49.90
2023-05-17T09:55:06.456Z,49.80
2023-05-17T09:57:51.969Z,49.40
2023-05-17T10:00:37.483Z,49.70
2023-05-17T10:03:23.194Z,49.70
2023-05-17T10:06:16.581Z,49.80
2023-05-17T10:09:15.245Z,49.70
2023-05-17T10:12:01.707Z,49.80
2023-05-17T10:14:48.419Z,49.50
2023-05-17T10:17:34.190Z,49.40
2023-05-17T10:20:21.361Z,49.70
2023-05-17T10:23:08.162Z,49.80
2023-05-17T10:25:54.500Z,49.90
2023-05-17T10:28:40.839Z,49.70
2023-05-17T10:31:33.269Z,49.60
2023-05-17T10:34:20.390Z,49.60
2023-05-17T10:37:07.000Z,49.80
2023-05-17T10:39:52.682Z,49.70
2023-05-17T10:42:47.935Z,49.40
2023-05-17T10:45:38.732Z,49.10
2023-05-17T10:48:28.633Z,49.20
2023-05-17T10:51:14.305Z,48.80
2023-05-17T10:54:16.110Z,48.70
2023-05-17T10:57:08.443Z,43.50
2023-05-17T11:00:01.318Z,48.30
2023-05-17T11:02:47.137Z,48.00
2023-05-17T11:05:32.807Z,47.40
2023-05-17T11:08:18.899Z,47.90
2023-05-17T11:11:18.858Z,47.50
2023-05-17T11:14:05.421Z,45.10
2023-05-17T11:16:58.353Z,48.20
2023-05-17T11:19:57.259Z,47.90
2023-05-17T11:22:59.660Z,46.80
2023-05-17T11:25:48.356Z,48.90
2023-05-17T11:28:34.337Z,49.10
2023-05-17T11:31:34.273Z,48.60
2023-05-17T11:34:19.959Z,47.70
2023-05-17T11:37:11.294Z,48.90
2023-05-17T11:40:07.176Z,47.70
2023-05-17T11:43:15.607Z,48.50
2023-05-17T11:46:01.051Z,47.60
2023-05-17T11:48:47.767Z,48.80
2023-05-17T11:51:33.642Z,49.00
2023-05-17T11:54:24.889Z,48.50
2023-05-17T11:57:12.435Z,48.90
2023-05-17T12:00:03.437Z,49.00
2023-05-17T12:02:49.416Z,49.50
2023-05-17T12:05:35.806Z,49.30
2023-05-17T12:08:22.177Z,48.40
2023-05-17T12:11:13.773Z,48.80
2023-05-17T12:13:59.479Z,48.70
2023-05-17T12:16:50.914Z,49.20
2023-05-17T12:19:36.426Z,49.10
2023-05-17T12:22:22.354Z,48.80
2023-05-17T12:25:23.743Z,48.90
2023-05-17T12:28:19.019Z,47.40
2023-05-17T12:31:14.596Z,43.40
2023-05-17T12:34:01.002Z,48.40
2023-05-17T12:36:47.378Z,48.60
2023-05-17T12:39:33.164Z,48.40
2023-05-17T12:42:18.747Z,48.10
2023-05-17T12:45:05.107Z,48.30
2023-05-17T12:47:50.793Z,48.30
2023-05-17T12:50:36.301Z,48.30
2023-05-17T12:53:22.861Z,48.20
2023-05-17T12:56:16.652Z,48.50
2023-05-17T12:59:17.662Z,48.40
2023-05-17T13:02:03.623Z,47.20
2023-05-17T13:04:49.588Z,47.90
2023-05-17T13:07:35.175Z,48.50
2023-05-17T13:10:27.622Z,48.10
2023-05-17T13:13:21.011Z,48.10
2023-05-17T13:16:07.732Z,48.40
2023-05-17T13:18:56.223Z,48.10
2023-05-17T13:21:42.311Z,48.20
2023-05-17T13:24:27.892Z,48.30
2023-05-17T13:27:13.690Z,48.20
2023-05-17T13:29:59.004Z,48.40
2023-05-17T13:32:45.228Z,48.70
2023-05-17T13:35:30.906Z,49.10
2023-05-17T13:38:16.275Z,49.30
2023-05-17T13:41:02.040Z,49.30
2023-05-17T13:43:47.901Z,49.50
2023-05-17T13:46:33.587Z,49.30
2023-05-17T13:49:19.390Z,49.40
2023-05-17T13:52:05.611Z,49.50
2023-05-17T13:54:51.492Z,49.40
2023-05-17T13:57:36.917Z,49.20
2023-05-17T14:00:22.866Z,49.50
2023-05-17T14:03:09.457Z,49.40
2023-05-17T14:05:55.292Z,49.40
2023-05-17T14:08:41.138Z,49.30
2023-05-17T14:11:27.302Z,49.00
2023-05-17T14:14:12.815Z,48.90
2023-05-17T14:16:58.381Z,48.90
2023-05-17T14:19:44.019Z,49.00
2023-05-17T14:22:29.737Z,48.90
2023-05-17T14:25:15.279Z,49.00
2023-05-17T14:28:00.650Z,49.20
2023-05-17T14:30:49.017Z,49.00
2023-05-17T14:33:35.740Z,48.90
2023-05-17T14:36:21.517Z,48.90
2023-05-17T14:39:07.086Z,49.70
2023-05-17T14:41:52.599Z,49.10
2023-05-17T14:44:38.047Z,49.20
2023-05-17T14:47:24.134Z,49.40
2023-05-17T14:50:10.859Z,49.40
2023-05-17T14:52:56.320Z,49.70
2023-05-17T14:55:42.246Z,49.80
2023-05-17T14:58:28.323Z,49.90
2023-05-17T15:01:14.020Z,49.80
2023-05-17T15:03:59.632Z,49.90
2023-05-17T15:06:45.748Z,49.60
2023-05-17T15:09:31.353Z,49.70
2023-05-17T15:12:16.757Z,49.80
2023-05-17T15:15:03.687Z,49.80
2023-05-17T15:17:49.552Z,49.80
2023-05-17T15:20:38.426Z,49.70
2023-05-17T15:23:24.134Z,49.80
2023-05-17T15:26:10.223Z,49.80
2023-05-17T15:28:56.198Z,49.70
2023-05-17T15:31:41.859Z,49.70
2023-05-17T15:34:27.758Z,49.60
2023-05-17T15:37:13.152Z,49.80
2023-05-17T15:40:09.400Z,49.90
2023-05-17T15:42:54.962Z,49.80
2023-05-17T15:45:40.822Z,49.90
2023-05-17T15:48:26.621Z,49.90
2023-05-17T15:51:12.264Z,50.00
2023-05-17T15:53:57.941Z,49.90
2023-05-17T15:56:43.663Z,50.50
2023-05-17T15:59:29.130Z,49.90
2023-05-17T16:02:14.716Z,49.90
2023-05-17T16:05:02.751Z,49.90
2023-05-17T16:07:49.340Z,50.00
2023-05-17T16:10:36.203Z,50.00
2023-05-17T16:13:21.939Z,50.10
2023-05-17T16:16:07.378Z,50.40
2023-05-17T16:18:55.062Z,50.50
2023-05-17T16:21:40.957Z,50.70
2023-05-17T16:24:26.561Z,50.60
2023-05-17T16:27:12.056Z,50.60
2023-05-17T16:29:58.481Z,50.60
2023-05-17T16:32:45.238Z,50.60
2023-05-17T16:35:31.222Z,50.60
2023-05-17T16:38:17.464Z,50.60
2023-05-17T16:41:02.957Z,50.60
2023-05-17T16:43:48.870Z,50.60
2023-05-17T16:46:34.618Z,50.70
2023-05-17T16:49:20.283Z,50.80
2023-05-17T16:52:05.933Z,50.70
2023-05-17T16:54:51.456Z,50.70
2023-05-17T16:57:36.893Z,50.70
2023-05-17T17:00:22.943Z,50.70
2023-05-17T17:03:09.859Z,50.70
2023-05-17T17:05:55.835Z,50.80
2023-05-17T17:08:41.006Z,50.80
2023-05-17T17:11:26.428Z,50.70
2023-05-17T17:14:12.293Z,50.70
2023-05-17T17:16:57.951Z,50.70
2023-05-17T17:19:43.883Z,50.70
2023-05-17T17:22:29.245Z,50.60
2023-05-17T17:25:14.705Z,50.60
2023-05-17T17:28:00.160Z,50.80
2023-05-17T17:30:45.502Z,50.60
2023-05-17T17:33:31.222Z,50.50
2023-05-17T17:36:17.104Z,50.50
2023-05-17T17:39:02.518Z,50.60
2023-05-17T17:41:47.984Z,50.70
2023-05-17T17:44:33.539Z,50.60
2023-05-17T17:47:19.091Z,50.50
2023-05-17T17:50:05.854Z,50.50
2023-05-17T17:52:51.512Z,50.50
2023-05-17T17:55:37.375Z,50.60
2023-05-17T17:58:23.041Z,50.60
2023-05-17T18:01:08.954Z,50.70
2023-05-17T18:03:54.932Z,50.70
2023-05-17T18:06:40.693Z,50.80
2023-05-17T18:09:26.323Z,50.90
2023-05-17T18:12:11.782Z,50.90
2023-05-17T18:14:57.345Z,51.10
2023-05-17T18:17:42.734Z,51.00
2023-05-17T18:20:28.474Z,51.10
2023-05-17T18:23:14.265Z,51.20
2023-05-17T18:25:59.626Z,51.00
2023-05-17T18:28:45.588Z,51.00
2023-05-17T18:31:30.981Z,51.80
2023-05-17T18:34:17.395Z,51.00
2023-05-17T18:37:03.226Z,51.10
2023-05-17T18:39:48.509Z,51.10
2023-05-17T18:42:34.370Z,51.60
2023-05-17T18:45:20.462Z,51.20
2023-05-17T18:48:06.120Z,51.20
2023-05-17T18:50:51.547Z,51.20
2023-05-17T18:53:37.119Z,51.20
2023-05-17T18:56:22.919Z,51.30
2023-05-17T18:59:08.891Z,51.30
2023-05-17T19:01:54.612Z,51.30
2023-05-17T19:04:40.718Z,51.40
2023-05-17T19:07:26.363Z,51.40
2023-05-17T19:10:12.193Z,51.40
2023-05-17T19:12:57.687Z,51.50
2023-05-17T19:15:43.257Z,51.50
2023-05-17T19:18:30.401Z,51.60
2023-05-17T19:21:17.324Z,51.70
2023-05-17T19:24:10.270Z,51.70
2023-05-17T19:26:58.581Z,51.70
2023-05-17T19:29:46.056Z,51.90
2023-05-17T19:32:31.554Z,51.80
2023-05-17T19:35:16.998Z,51.90
2023-05-17T19:38:03.234Z,51.70
2023-05-17T19:40:48.839Z,51.80
2023-05-17T19:43:34.715Z,52.10
2023-05-17T19:46:20.330Z,52.20
2023-05-17T19:49:05.698Z,52.10
2023-05-17T19:51:51.272Z,52.30
2023-05-17T19:54:36.862Z,52.40
2023-05-17T19:57:22.329Z,52.30
2023-05-17T20:00:09.152Z,52.40
2023-05-17T20:03:01.600Z,52.60
2023-05-17T20:05:47.499Z,52.80
2023-05-17T20:08:33.480Z,53.30
2023-05-17T20:11:19.132Z,52.80
2023-05-17T20:14:15.988Z,52.80
2023-05-17T20:17:02.827Z,53.10
2023-05-17T20:19:49.696Z,53.20
2023-05-17T20:22:36.208Z,53.30
2023-05-17T20:25:22.285Z,53.10
2023-05-17T20:28:08.015Z,53.10
2023-05-17T20:30:53.540Z,53.70
2023-05-17T20:33:39.175Z,53.50
2023-05-17T20:36:25.306Z,53.40
2023-05-17T20:39:11.299Z,54.10
2023-05-17T20:41:58.076Z,54.10
2023-05-17T20:44:49.077Z,53.40
2023-05-17T20:47:34.629Z,53.30
2023-05-17T20:50:21.590Z,54.20
2023-05-17T20:53:07.619Z,53.80
2023-05-17T20:55:53.139Z,54.00
2023-05-17T20:58:43.378Z,54.30
2023-05-17T21:01:32.988Z,53.90
2023-05-17T21:04:18.838Z,54.60
2023-05-17T21:07:11.374Z,55.10
2023-05-17T21:10:03.887Z,54.80
2023-05-17T21:12:49.901Z,54.60
2023-05-17T21:15:36.499Z,54.90
2023-05-17T21:18:23.088Z,55.10
2023-05-17T21:21:08.650Z,55.60
2023-05-17T21:23:53.908Z,55.00
2023-05-17T21:26:40.992Z,54.90
2023-05-17T21:29:27.211Z,55.40
2023-05-17T21:32:12.604Z,55.20
2023-05-17T21:34:58.213Z,55.10
2023-05-17T21:37:47.139Z,55.30
2023-05-17T21:40:33.014Z,54.60
2023-05-17T21:43:19.067Z,55.30
2023-05-17T21:46:04.872Z,55.70
2023-05-17T21:48:50.253Z,55.90
2023-05-17T21:51:35.798Z,56.40
2023-05-17T21:54:24.082Z,55.80
2023-05-17T21:57:09.786Z,55.90
2023-05-17T21:59:55.536Z,56.00
2023-05-17T22:02:44.186Z,56.00
2023-05-17T22:05:30.407Z,56.20
2023-05-17T22:08:15.993Z,56.10
2023-05-17T22:11:01.375Z,56.30
2023-05-17T22:13:46.994Z,56.30
2023-05-17T22:16:33.471Z,56.40
2023-05-17T22:19:20.717Z,56.40
2023-05-17T22:22:10.214Z,57.00
2023-05-17T22:24:55.633Z,56.40
2023-05-17T22:27:40.944Z,57.00
2023-05-17T22:30:26.519Z,57.00
2023-05-17T22:33:12.852Z,57.00
2023-05-17T22:35:58.372Z,57.20
2023-05-17T22:38:44.205Z,57.70
2023-05-17T22:41:30.632Z,57.10
2023-05-17T22:44:16.165Z,58.30
2023-05-17T22:47:02.498Z,58.50
2023-05-17T22:49:48.569Z,57.90
2023-05-17T22:52:34.228Z,58.30
2023-05-17T22:55:19.634Z,57.90
2023-05-17T22:58:05.220Z,58.20
2023-05-17T23:00:51.099Z,57.90
2023-05-17T23:03:36.696Z,58.30
2023-05-17T23:06:22.313Z,58.30
2023-05-17T23:09:08.070Z,58.00
2023-05-17T23:11:53.363Z,58.20
2023-05-17T23:14:38.906Z,59.10
2023-05-17T23:17:24.645Z,58.30
2023-05-17T23:20:11.280Z,58.40
2023-05-17T23:22:57.232Z,58.70
2023-05-17T23:25:42.688Z,58.40
2023-05-17T23:28:28.252Z,59.00
2023-05-17T23:31:13.477Z,58.30
2023-05-17T23:33:58.863Z,58.50
2023-05-17T23:36:44.363Z,58.90
2023-05-17T23:39:30.123Z,58.90
2023-05-17T23:42:15.600Z,59.10
2023-05-17T23:45:05.192Z,59.60
2023-05-17T23:47:50.714Z,58.90
2023-05-17T23:50:37.346Z,59.60
2023-05-17T23:53:22.786Z,59.70
2023-05-17T23:56:08.290Z,59.40
2023-05-17T23:58:53.725Z,59.20
